sensor_id;sensor_type;location;lat;lon;timestamp;P1;durP1;ratioP1;P2;durP2;ratioP2
11135;SDS011;5622;50.840;4.948;2023-04-01T00:01:05;3.37;;;2.23;;
11135;SDS011;5622;50.840;4.948;2023-04-01T00:03:33;6.30;;;2.40;;
11135;SDS011;5622;50.840;4.948;2023-04-01T00:06:01;6.33;;;2.10;;
11135;SDS011;5622;50.840;4.948;2023-04-01T00:08:28;3.50;;;1.80;;
11135;SDS011;5622;50.840;4.948;2023-04-01T00:10:56;4.53;;;2.40;;
11135;SDS011;5622;50.840;4.948;2023-04-01T00:13:25;3.60;;;2.27;;
11135;SDS011;5622;50.840;4.948;2023-04-01T00:15:53;4.20;;;1.87;;
11135;SDS011;5622;50.840;4.948;2023-04-01T00:18:20;5.17;;;1.97;;
11135;SDS011;5622;50.840;4.948;2023-04-01T00:20:48;4.30;;;2.20;;
11135;SDS011;5622;50.840;4.948;2023-04-01T00:23:18;3.47;;;2.20;;
11135;SDS011;5622;50.840;4.948;2023-04-01T00:25:46;2.73;;;1.70;;
11135;SDS011;5622;50.840;4.948;2023-04-01T00:28:14;6.07;;;2.50;;
11135;SDS011;5622;50.840;4.948;2023-04-01T00:30:43;5.27;;;2.27;;
11135;SDS011;5622;50.840;4.948;2023-04-01T00:33:10;5.53;;;2.40;;
11135;SDS011;5622;50.840;4.948;2023-04-01T00:35:38;5.73;;;2.37;;
11135;SDS011;5622;50.840;4.948;2023-04-01T00:38:05;5.57;;;2.70;;
11135;SDS011;5622;50.840;4.948;2023-04-01T00:40:34;4.53;;;2.43;;
11135;SDS011;5622;50.840;4.948;2023-04-01T00:43:02;5.77;;;2.80;;
11135;SDS011;5622;50.840;4.948;2023-04-01T00:45:31;5.27;;;2.83;;
11135;SDS011;5622;50.840;4.948;2023-04-01T00:48:03;3.07;;;2.47;;
11135;SDS011;5622;50.840;4.948;2023-04-01T00:50:33;6.90;;;2.80;;
11135;SDS011;5622;50.840;4.948;2023-04-01T00:53:02;7.77;;;2.27;;
11135;SDS011;5622;50.840;4.948;2023-04-01T00:55:30;4.57;;;2.43;;
11135;SDS011;5622;50.840;4.948;2023-04-01T00:58:01;3.27;;;2.27;;
11135;SDS011;5622;50.840;4.948;2023-04-01T01:00:33;3.17;;;2.40;;
11135;SDS011;5622;50.840;4.948;2023-04-01T01:03:05;4.63;;;2.50;;
11135;SDS011;5622;50.840;4.948;2023-04-01T01:05:36;5.10;;;2.50;;
11135;SDS011;5622;50.840;4.948;2023-04-01T07:31:52;5.30;;;3.97;;
11135;SDS011;5622;50.840;4.948;2023-04-01T10:10:59;1.70;;;1.60;;
11135;SDS011;5622;50.840;4.948;2023-04-01T19:26:48;7.70;;;6.57;;
11135;SDS011;5622;50.840;4.948;2023-04-01T19:29:33;7.87;;;7.17;;
11135;SDS011;5622;50.840;4.948;2023-04-01T19:32:12;8.87;;;7.50;;
11135;SDS011;5622;50.840;4.948;2023-04-01T19:34:53;9.13;;;7.77;;
11135;SDS011;5622;50.840;4.948;2023-04-01T19:37:32;9.77;;;8.57;;
11135;SDS011;5622;50.840;4.948;2023-04-01T19:40:16;9.13;;;8.13;;
11135;SDS011;5622;50.840;4.948;2023-04-01T19:43:02;10.83;;;8.10;;
11135;SDS011;5622;50.840;4.948;2023-04-01T19:45:38;10.83;;;8.80;;
11135;SDS011;5622;50.840;4.948;2023-04-01T19:48:14;9.13;;;8.23;;
11135;SDS011;5622;50.840;4.948;2023-04-01T19:50:59;8.10;;;6.90;;
11135;SDS011;5622;50.840;4.948;2023-04-01T19:53:43;8.37;;;6.97;;
11135;SDS011;5622;50.840;4.948;2023-04-01T19:56:19;7.87;;;7.00;;
11135;SDS011;5622;50.840;4.948;2023-04-01T19:58:52;8.87;;;7.40;;
11135;SDS011;5622;50.840;4.948;2023-04-01T20:01:32;8.53;;;7.00;;
11135;SDS011;5622;50.840;4.948;2023-04-01T20:04:19;9.77;;;8.00;;
11135;SDS011;5622;50.840;4.948;2023-04-01T20:06:52;9.40;;;7.97;;
11135;SDS011;5622;50.840;4.948;2023-04-01T20:09:31;8.90;;;7.50;;
11135;SDS011;5622;50.840;4.948;2023-04-01T20:12:17;11.87;;;8.83;;
11135;SDS011;5622;50.840;4.948;2023-04-01T20:15:19;11.47;;;8.77;;
11135;SDS011;5622;50.840;4.948;2023-04-01T20:17:50;10.43;;;8.20;;
11135;SDS011;5622;50.840;4.948;2023-04-01T20:20:20;9.47;;;7.87;;
11135;SDS011;5622;50.840;4.948;2023-04-01T20:22:56;9.23;;;7.80;;
11135;SDS011;5622;50.840;4.948;2023-04-01T20:25:31;10.23;;;7.70;;
11135;SDS011;5622;50.840;4.948;2023-04-01T20:28:13;11.13;;;7.43;;
11135;SDS011;5622;50.840;4.948;2023-04-01T20:30:57;12.53;;;7.87;;
11135;SDS011;5622;50.840;4.948;2023-04-01T20:33:49;10.20;;;8.40;;
11135;SDS011;5622;50.840;4.948;2023-04-01T20:36:36;10.70;;;7.53;;
11135;SDS011;5622;50.840;4.948;2023-04-01T20:39:15;11.73;;;8.07;;
11135;SDS011;5622;50.840;4.948;2023-04-01T20:41:56;10.77;;;8.23;;
11135;SDS011;5622;50.840;4.948;2023-04-01T20:44:37;8.67;;;7.43;;
11135;SDS011;5622;50.840;4.948;2023-04-01T20:47:16;8.03;;;7.20;;
11135;SDS011;5622;50.840;4.948;2023-04-01T20:49:53;11.40;;;7.63;;
11135;SDS011;5622;50.840;4.948;2023-04-01T20:52:26;8.83;;;7.67;;
11135;SDS011;5622;50.840;4.948;2023-04-01T20:55:02;8.93;;;7.70;;
11135;SDS011;5622;50.840;4.948;2023-04-01T20:57:49;8.60;;;7.60;;
11135;SDS011;5622;50.840;4.948;2023-04-01T21:00:27;9.03;;;7.63;;
11135;SDS011;5622;50.840;4.948;2023-04-01T21:03:08;10.63;;;8.13;;
11135;SDS011;5622;50.840;4.948;2023-04-01T21:08:50;10.53;;;8.80;;
11135;SDS011;5622;50.840;4.948;2023-04-01T21:11:30;10.47;;;8.90;;
11135;SDS011;5622;50.840;4.948;2023-04-01T21:14:09;13.00;;;10.00;;
11135;SDS011;5622;50.840;4.948;2023-04-01T21:17:09;12.80;;;10.27;;
11135;SDS011;5622;50.840;4.948;2023-04-01T21:19:53;12.30;;;9.47;;
11135;SDS011;5622;50.840;4.948;2023-04-01T21:22:37;14.57;;;11.00;;
11135;SDS011;5622;50.840;4.948;2023-04-01T21:28:09;16.53;;;10.20;;
11135;SDS011;5622;50.840;4.948;2023-04-01T21:30:58;13.00;;;10.60;;
11135;SDS011;5622;50.840;4.948;2023-04-01T21:33:42;12.87;;;9.83;;
11135;SDS011;5622;50.840;4.948;2023-04-01T21:39:42;13.07;;;9.40;;
11135;SDS011;5622;50.840;4.948;2023-04-01T21:42:23;11.77;;;9.00;;
11135;SDS011;5622;50.840;4.948;2023-04-01T21:45:15;10.20;;;8.17;;
11135;SDS011;5622;50.840;4.948;2023-04-01T21:48:14;10.80;;;8.40;;
11135;SDS011;5622;50.840;4.948;2023-04-01T21:51:11;10.57;;;7.93;;
11135;SDS011;5622;50.840;4.948;2023-04-01T21:54:24;11.57;;;9.07;;
11135;SDS011;5622;50.840;4.948;2023-04-01T21:57:20;10.10;;;8.37;;
11135;SDS011;5622;50.840;4.948;2023-04-01T22:00:12;12.13;;;8.80;;
11135;SDS011;5622;50.840;4.948;2023-04-01T22:02:51;14.77;;;10.77;;
11135;SDS011;5622;50.840;4.948;2023-04-01T22:05:52;16.80;;;11.83;;
11135;SDS011;5622;50.840;4.948;2023-04-01T22:08:33;16.83;;;13.40;;
11135;SDS011;5622;50.840;4.948;2023-04-01T22:11:12;17.30;;;12.83;;
11135;SDS011;5622;50.840;4.948;2023-04-01T22:13:48;15.07;;;12.13;;
11135;SDS011;5622;50.840;4.948;2023-04-01T22:16:20;16.30;;;12.40;;
11135;SDS011;5622;50.840;4.948;2023-04-01T22:18:54;16.53;;;12.30;;
11135;SDS011;5622;50.840;4.948;2023-04-01T22:21:29;16.07;;;12.17;;
11135;SDS011;5622;50.840;4.948;2023-04-01T22:24:08;15.70;;;12.03;;
11135;SDS011;5622;50.840;4.948;2023-04-01T22:26:45;20.90;;;15.67;;
11135;SDS011;5622;50.840;4.948;2023-04-01T22:29:23;18.90;;;11.67;;
11135;SDS011;5622;50.840;4.948;2023-04-01T22:31:59;15.83;;;11.37;;
11135;SDS011;5622;50.840;4.948;2023-04-01T22:34:33;15.57;;;11.43;;
11135;SDS011;5622;50.840;4.948;2023-04-01T22:37:08;16.53;;;12.13;;
11135;SDS011;5622;50.840;4.948;2023-04-01T22:39:54;17.00;;;11.70;;
11135;SDS011;5622;50.840;4.948;2023-04-01T22:42:39;15.10;;;11.97;;
11135;SDS011;5622;50.840;4.948;2023-04-01T22:45:23;14.63;;;10.40;;
11135;SDS011;5622;50.840;4.948;2023-04-01T22:48:05;15.17;;;11.63;;
11135;SDS011;5622;50.840;4.948;2023-04-01T22:50:36;14.40;;;11.30;;
11135;SDS011;5622;50.840;4.948;2023-04-01T22:53:15;14.87;;;11.77;;
11135;SDS011;5622;50.840;4.948;2023-04-01T22:55:48;13.67;;;10.97;;
11135;SDS011;5622;50.840;4.948;2023-04-01T22:58:20;13.50;;;10.57;;
11135;SDS011;5622;50.840;4.948;2023-04-01T23:00:53;13.50;;;10.37;;
11135;SDS011;5622;50.840;4.948;2023-04-01T23:03:24;15.53;;;11.67;;
11135;SDS011;5622;50.840;4.948;2023-04-01T23:05:56;15.80;;;12.03;;
11135;SDS011;5622;50.840;4.948;2023-04-01T23:08:39;14.53;;;12.07;;
11135;SDS011;5622;50.840;4.948;2023-04-01T23:11:27;14.53;;;11.20;;
11135;SDS011;5622;50.840;4.948;2023-04-01T23:14:14;16.17;;;11.43;;
11135;SDS011;5622;50.840;4.948;2023-04-01T23:17:01;14.00;;;10.93;;
11135;SDS011;5622;50.840;4.948;2023-04-01T23:19:37;16.10;;;11.07;;
11135;SDS011;5622;50.840;4.948;2023-04-01T23:22:13;12.30;;;9.93;;
11135;SDS011;5622;50.840;4.948;2023-04-01T23:24:49;12.17;;;9.57;;
11135;SDS011;5622;50.840;4.948;2023-04-01T23:27:20;11.67;;;9.33;;
11135;SDS011;5622;50.840;4.948;2023-04-01T23:29:53;10.20;;;7.90;;
11135;SDS011;5622;50.840;4.948;2023-04-01T23:32:22;14.53;;;8.93;;
11135;SDS011;5622;50.840;4.948;2023-04-01T23:34:51;11.13;;;8.33;;
11135;SDS011;5622;50.840;4.948;2023-04-01T23:37:20;10.70;;;8.30;;
11135;SDS011;5622;50.840;4.948;2023-04-01T23:39:48;11.27;;;8.73;;
11135;SDS011;5622;50.840;4.948;2023-04-01T23:42:18;11.00;;;9.00;;
11135;SDS011;5622;50.840;4.948;2023-04-01T23:44:47;10.90;;;8.63;;
11135;SDS011;5622;50.840;4.948;2023-04-01T23:47:18;12.13;;;9.27;;
11135;SDS011;5622;50.840;4.948;2023-04-01T23:49:49;11.23;;;8.77;;
11135;SDS011;5622;50.840;4.948;2023-04-01T23:52:21;9.10;;;7.83;;
11135;SDS011;5622;50.840;4.948;2023-04-01T23:54:51;12.60;;;8.53;;
11135;SDS011;5622;50.840;4.948;2023-04-01T23:57:22;9.13;;;7.30;;
